createdAt,value
2022-08-08T00:00:56.445Z,27.40
2022-08-08T00:03:28.304Z,27.40
2022-08-08T00:06:35.603Z,27.40
2022-08-08T00:09:12.152Z,27.50
2022-08-08T00:12:57.285Z,27.50
2022-08-08T00:16:00.109Z,27.60
2022-08-08T00:19:04.747Z,27.70
2022-08-08T00:35:18.705Z,27.90
2022-08-08T00:38:16.674Z,27.90
2022-08-08T00:41:55.617Z,28.00
2022-08-08T00:44:33.857Z,28.00
2022-08-08T00:48:05.332Z,28.00
2022-08-08T00:51:38.851Z,28.00
2022-08-08T00:55:06.509Z,28.10
2022-08-08T00:58:37.119Z,28.10
2022-08-08T01:01:38.205Z,28.20
2022-08-08T01:05:05.215Z,28.20
2022-08-08T01:08:28.784Z,28.20
2022-08-08T01:11:20.835Z,28.30
2022-08-08T01:14:53.178Z,28.40
2022-08-08T01:17:34.932Z,28.60
2022-08-08T01:21:09.761Z,28.70
2022-08-08T01:27:32.926Z,28.80
2022-08-08T01:33:54.173Z,28.90
2022-08-08T01:36:50.610Z,28.80
2022-08-08T01:39:43.595Z,28.80
2022-08-08T01:43:12.042Z,28.80
2022-08-08T01:46:07.572Z,28.80
2022-08-08T01:48:54.986Z,28.90
2022-08-08T01:52:32.683Z,29.00
2022-08-08T01:55:25.754Z,29.00
2022-08-08T01:58:11.517Z,29.10
2022-08-08T02:00:57.514Z,29.10
2022-08-08T02:04:02.709Z,29.20
2022-08-08T02:07:04.295Z,29.30
2022-08-08T02:10:13.430Z,29.40
2022-08-08T02:13:54.546Z,29.30
2022-08-08T02:16:47.482Z,29.40
2022-08-08T02:20:59.997Z,29.40
2022-08-08T02:23:32.250Z,29.30
2022-08-08T02:26:15.726Z,29.30
2022-08-08T02:29:06.851Z,29.40
2022-08-08T02:32:06.325Z,29.40
2022-08-08T02:35:07.862Z,29.60
2022-08-08T02:41:17.816Z,29.90
2022-08-08T02:44:42.553Z,29.90
2022-08-08T02:47:54.779Z,30.10
2022-08-08T02:51:29.805Z,30.20
2022-08-08T02:54:29.496Z,30.40
2022-08-08T02:57:44.694Z,30.40
2022-08-08T03:00:31.215Z,30.30
2022-08-08T03:05:00.773Z,30.20
2022-08-08T03:06:51.456Z,30.30
2022-08-08T03:09:59.203Z,30.40
2022-08-08T03:13:33.528Z,30.50
2022-08-08T03:16:34.432Z,30.50
2022-08-08T03:19:31.161Z,30.40
2022-08-08T03:22:03.752Z,30.40
2022-08-08T03:24:57.041Z,30.40
2022-08-08T03:28:00.404Z,30.20
2022-08-08T03:30:37.453Z,30.20
2022-08-08T03:34:01.014Z,30.30
2022-08-08T03:36:57.806Z,30.20
2022-08-08T03:39:28.719Z,30.10
2022-08-08T03:46:12.085Z,30.20
2022-08-08T03:49:57.917Z,30.20
2022-08-08T04:05:30.594Z,30.30
2022-08-08T04:08:10.339Z,30.20
2022-08-08T04:11:17.671Z,30.30
2022-08-08T04:14:34.172Z,30.30
2022-08-08T04:17:57.882Z,30.40
2022-08-08T04:20:28.319Z,30.50
2022-08-08T04:32:53.236Z,30.80
2022-08-08T04:36:15.521Z,30.90
2022-08-08T04:52:35.045Z,31.70
2022-08-08T04:56:03.710Z,32.00
2022-08-08T05:13:54.809Z,32.60
2022-08-08T05:16:51.431Z,32.70
2022-08-08T05:20:12.594Z,32.70
2022-08-08T05:22:37.298Z,32.90
2022-08-08T05:26:04.517Z,32.80
2022-08-08T05:29:13.225Z,32.70
2022-08-08T05:41:54.698Z,33.70
2022-08-08T05:44:34.818Z,33.80
2022-08-08T05:47:41.668Z,33.80
2022-08-08T05:50:47.121Z,34.00
2022-08-08T06:06:36.758Z,34.00
2022-08-08T06:09:59.881Z,33.80
2022-08-08T06:12:59.183Z,33.80
2022-08-08T06:16:19.449Z,33.70
2022-08-08T06:34:27.097Z,35.10
2022-08-08T06:37:37.065Z,35.30
2022-08-08T06:40:48.571Z,35.40
2022-08-08T06:43:36.403Z,35.60
2022-08-08T06:46:51.140Z,35.70
2022-08-08T07:02:29.511Z,35.60
2022-08-08T07:05:29.863Z,35.70
2022-08-08T07:08:35.232Z,35.30
2022-08-08T07:11:51.235Z,35.30
2022-08-08T07:18:34.438Z,35.50
2022-08-08T07:21:31.290Z,35.70
2022-08-08T07:24:41.621Z,35.50
2022-08-08T07:28:00.493Z,35.30
2022-08-08T07:30:36.759Z,35.10
2022-08-08T07:33:17.764Z,35.00
2022-08-08T07:35:51.652Z,35.30
2022-08-08T07:38:29.673Z,35.10
2022-08-08T07:41:16.714Z,35.10
2022-08-08T07:44:04.639Z,35.10
2022-08-08T07:46:39.072Z,35.40
2022-08-08T07:49:17.596Z,35.30
2022-08-08T07:51:53.538Z,35.20
2022-08-08T07:54:35.039Z,35.20
2022-08-08T07:57:21.277Z,35.40
2022-08-08T08:00:13.158Z,35.50
2022-08-08T08:03:23.411Z,35.70
2022-08-08T08:06:03.481Z,35.80
2022-08-08T08:08:52.347Z,35.90
2022-08-08T08:11:34.093Z,35.40
2022-08-08T08:15:04.484Z,35.10
2022-08-08T08:17:55.719Z,35.00
2022-08-08T08:20:32.746Z,34.40
2022-08-08T08:23:08.435Z,34.10
2022-08-08T08:25:45.331Z,34.00
2022-08-08T08:28:24.353Z,34.20
2022-08-08T08:31:07.571Z,34.60
2022-08-08T08:33:43.608Z,34.70
2022-08-08T08:36:21.684Z,34.90
2022-08-08T08:39:17.643Z,35.10
2022-08-08T08:41:55.670Z,34.60
2022-08-08T08:44:30.565Z,34.00
2022-08-08T08:47:06.641Z,33.60
2022-08-08T08:49:42.805Z,33.30
2022-08-08T08:52:20.774Z,33.20
2022-08-08T08:54:57.435Z,33.30
2022-08-08T08:57:30.897Z,33.50
2022-08-08T09:00:14.729Z,33.90
2022-08-08T09:02:52.536Z,33.80
2022-08-08T09:05:54.265Z,33.80
2022-08-08T09:08:29.461Z,33.90
2022-08-08T09:11:11.646Z,33.90
2022-08-08T09:16:29.116Z,33.90
2022-08-08T09:19:05.654Z,34.20
2022-08-08T09:22:01.960Z,34.30
2022-08-08T09:24:30.889Z,34.30
2022-08-08T09:27:14.760Z,34.30
2022-08-08T09:29:56.927Z,34.30
2022-08-08T09:32:41.020Z,34.30
2022-08-08T09:35:37.231Z,34.10
2022-08-08T09:38:10.273Z,33.90
2022-08-08T09:40:57.623Z,33.70
2022-08-08T09:44:04.996Z,33.60
2022-08-08T09:46:32.075Z,33.40
2022-08-08T09:49:17.992Z,33.70
2022-08-08T09:52:06.215Z,33.90
2022-08-08T09:54:48.403Z,33.90
2022-08-08T09:57:35.187Z,33.90
2022-08-08T10:00:53.012Z,33.80
2022-08-08T10:03:20.137Z,33.80
2022-08-08T10:05:51.721Z,33.60
2022-08-08T10:08:23.387Z,33.60
2022-08-08T10:11:00.920Z,33.60
2022-08-08T10:13:35.730Z,33.40
2022-08-08T10:16:09.750Z,33.20
2022-08-08T10:19:00.912Z,33.10
2022-08-08T10:21:42.572Z,33.00
2022-08-08T10:24:28.810Z,32.80
2022-08-08T10:27:13.741Z,32.60
2022-08-08T10:33:03.805Z,32.50
2022-08-08T10:36:12.554Z,32.40
2022-08-08T10:38:50.012Z,32.30
2022-08-08T10:47:30.557Z,31.80
2022-08-08T10:50:15.454Z,31.60
2022-08-08T10:52:47.240Z,31.50
2022-08-08T10:55:45.611Z,31.30
2022-08-08T10:58:19.491Z,31.30
2022-08-08T11:00:54.366Z,30.90
2022-08-08T11:06:42.063Z,30.80
2022-08-08T11:09:20.011Z,30.60
2022-08-08T11:12:05.928Z,30.30
2022-08-08T11:17:59.718Z,30.30
2022-08-08T11:20:34.629Z,30.30
2022-08-08T11:23:08.810Z,30.20
2022-08-08T11:28:31.695Z,30.00
2022-08-08T11:31:04.841Z,29.80
2022-08-08T11:33:52.366Z,29.80
2022-08-08T11:36:30.258Z,29.80
2022-08-08T11:39:04.478Z,29.70
2022-08-08T11:41:37.958Z,29.60
2022-08-08T11:44:09.598Z,29.60
2022-08-08T11:46:42.282Z,29.60
2022-08-08T11:49:17.271Z,29.60
2022-08-08T11:51:50.532Z,29.60
2022-08-08T11:54:44.976Z,29.50
2022-08-08T11:57:27.936Z,29.40
2022-08-08T12:00:09.657Z,29.30
2022-08-08T12:02:58.732Z,29.40
2022-08-08T12:05:42.970Z,29.30
2022-08-08T12:08:14.765Z,29.40
2022-08-08T12:10:53.697Z,29.20
2022-08-08T12:13:38.029Z,29.30
2022-08-08T12:16:31.846Z,29.20
2022-08-08T12:19:14.986Z,29.20
2022-08-08T12:21:59.821Z,29.00
2022-08-08T12:24:54.269Z,28.90
2022-08-08T12:27:43.319Z,29.10
2022-08-08T12:30:24.880Z,29.10
2022-08-08T12:33:00.020Z,29.10
2022-08-08T12:35:52.304Z,29.10
2022-08-08T12:38:30.532Z,29.00
2022-08-08T12:41:33.740Z,28.90
2022-08-08T12:44:11.618Z,28.90
2022-08-08T12:46:43.137Z,28.80
2022-08-08T12:49:40.236Z,28.80
2022-08-08T12:52:14.243Z,28.80
2022-08-08T12:55:13.344Z,28.70
2022-08-08T12:58:15.876Z,28.80
2022-08-08T13:00:54.633Z,28.70
2022-08-08T13:03:35.723Z,28.60
2022-08-08T13:06:15.048Z,28.60
2022-08-08T13:09:02.962Z,28.60
2022-08-08T13:12:27.112Z,28.50
2022-08-08T13:14:53.341Z,28.60
2022-08-08T13:20:23.201Z,28.60
2022-08-08T13:23:26.857Z,28.50
2022-08-08T13:25:51.156Z,28.60
2022-08-08T13:28:34.254Z,28.50
2022-08-08T13:31:07.185Z,28.40
2022-08-08T13:33:42.690Z,28.50
2022-08-08T13:36:15.141Z,28.60
2022-08-08T13:39:08.960Z,28.80
2022-08-08T13:41:52.752Z,28.80
2022-08-08T13:44:31.709Z,28.70
2022-08-08T13:47:07.104Z,28.90
2022-08-08T13:50:36.845Z,29.00
2022-08-08T13:52:37.316Z,29.10
2022-08-08T13:55:10.203Z,29.10
2022-08-08T13:58:07.798Z,29.00
2022-08-08T14:00:45.397Z,28.80
2022-08-08T14:03:55.173Z,28.90
2022-08-08T14:06:33.064Z,29.10
2022-08-08T14:09:24.259Z,29.10
2022-08-08T14:12:28.210Z,29.20
2022-08-08T14:15:00.452Z,29.30
2022-08-08T14:18:34.511Z,29.30
2022-08-08T14:21:12.533Z,29.30
2022-08-08T14:24:06.502Z,29.30
2022-08-08T14:26:46.714Z,29.20
2022-08-08T14:29:28.037Z,29.10
2022-08-08T14:32:08.862Z,29.00
2022-08-08T14:34:45.645Z,28.90
2022-08-08T14:37:20.107Z,28.60
2022-08-08T14:42:55.461Z,28.60
2022-08-08T14:46:01.376Z,28.30
2022-08-08T14:48:34.321Z,28.10
2022-08-08T14:51:11.777Z,27.90
2022-08-08T14:53:54.577Z,27.40
2022-08-08T14:56:29.451Z,27.20
2022-08-08T14:59:39.836Z,27.10
2022-08-08T15:02:31.173Z,27.10
2022-08-08T15:07:53.827Z,27.00
2022-08-08T15:10:31.706Z,26.80
2022-08-08T15:13:05.995Z,26.80
2022-08-08T15:16:02.667Z,26.70
2022-08-08T15:18:30.782Z,26.70
2022-08-08T15:21:27.523Z,26.50
2022-08-08T15:24:02.765Z,26.50
2022-08-08T15:26:34.711Z,26.40
2022-08-08T15:29:08.369Z,26.40
2022-08-08T15:32:17.462Z,26.40
2022-08-08T15:34:32.328Z,26.40
2022-08-08T15:37:26.495Z,26.40
2022-08-08T15:40:00.332Z,26.40
2022-08-08T15:42:35.168Z,26.30
2022-08-08T15:45:12.680Z,26.30
2022-08-08T15:48:05.486Z,26.20
2022-08-08T15:50:56.616Z,26.10
2022-08-08T15:53:33.332Z,26.20
2022-08-08T15:56:22.886Z,26.20
2022-08-08T15:59:16.198Z,26.20
2022-08-08T16:01:59.700Z,26.10
2022-08-08T16:04:33.561Z,26.10
2022-08-08T16:07:11.906Z,26.10
2022-08-08T16:13:05.027Z,26.20
2022-08-08T16:15:20.954Z,26.10
2022-08-08T16:18:05.984Z,26.00
2022-08-08T16:21:25.764Z,26.00
2022-08-08T16:24:07.223Z,25.90
2022-08-08T16:27:17.773Z,25.90
2022-08-08T16:30:14.217Z,25.90
2022-08-08T16:33:09.386Z,25.80
2022-08-08T16:35:42.844Z,25.60
2022-08-08T16:38:31.378Z,25.60
2022-08-08T16:41:03.716Z,25.70
2022-08-08T16:43:42.261Z,25.80
2022-08-08T16:46:43.646Z,25.80
2022-08-08T16:49:22.609Z,25.70
2022-08-08T16:55:02.064Z,25.70
2022-08-08T16:55:42.820Z,25.60
2022-08-08T16:58:38.035Z,25.40
2022-08-08T17:01:15.956Z,25.30
2022-08-08T17:03:59.839Z,25.30
2022-08-08T17:06:43.675Z,25.30
2022-08-08T17:09:45.041Z,25.40
2022-08-08T17:12:21.596Z,25.50
2022-08-08T17:14:52.996Z,25.60
2022-08-08T17:18:03.592Z,25.60
2022-08-08T17:20:39.457Z,25.70
2022-08-08T17:23:17.856Z,25.70
2022-08-08T17:26:05.991Z,25.70
2022-08-08T17:28:57.309Z,25.80
2022-08-08T17:31:45.892Z,26.00
2022-08-08T17:34:53.029Z,26.00
2022-08-08T17:37:13.510Z,26.00
2022-08-08T17:40:05.173Z,26.00
2022-08-08T17:42:40.419Z,26.10
2022-08-08T17:45:14.233Z,25.80
2022-08-08T17:48:29.298Z,25.80
2022-08-08T17:51:02.473Z,25.80
2022-08-08T17:53:43.654Z,25.70
2022-08-08T17:56:16.427Z,25.50
2022-08-08T18:02:03.904Z,25.80
2022-08-08T18:05:22.317Z,25.80
2022-08-08T18:08:03.172Z,25.70
2022-08-08T18:10:36.573Z,25.70
2022-08-08T18:13:41.708Z,25.70
2022-08-08T18:16:54.499Z,25.60
2022-08-08T18:20:37.280Z,25.50
2022-08-08T18:22:50.711Z,25.40
2022-08-08T18:40:07.984Z,25.40
2022-08-08T18:42:50.228Z,25.30
2022-08-08T18:46:52.958Z,25.30
2022-08-08T18:48:35.136Z,25.30
2022-08-08T18:51:21.478Z,25.30
2022-08-08T18:54:05.717Z,25.40
2022-08-08T18:56:45.485Z,25.30
2022-08-08T18:59:40.899Z,25.20
2022-08-08T19:02:34.982Z,25.30
2022-08-08T19:18:32.573Z,25.20
2022-08-08T19:21:30.565Z,25.10
2022-08-08T19:26:01.953Z,25.10
2022-08-08T19:31:08.996Z,25.30
2022-08-08T19:33:51.881Z,25.30
2022-08-08T19:36:58.743Z,25.30
2022-08-08T19:57:08.268Z,25.20
2022-08-08T20:00:30.818Z,25.10
2022-08-08T20:04:02.351Z,25.10
2022-08-08T20:06:38.214Z,25.00
2022-08-08T20:32:09.826Z,24.90
2022-08-08T20:35:05.371Z,24.90
2022-08-08T20:37:58.899Z,24.90
2022-08-08T20:41:17.389Z,24.90
2022-08-08T20:50:53.488Z,24.90
2022-08-08T20:53:59.887Z,24.90
2022-08-08T20:57:04.831Z,25.00
2022-08-08T20:59:33.367Z,25.00
2022-08-08T21:02:19.650Z,24.90
2022-08-08T21:08:36.100Z,24.80
2022-08-08T21:11:13.361Z,24.60
2022-08-08T21:25:58.822Z,24.90
2022-08-08T21:28:33.685Z,24.90
2022-08-08T21:32:00.201Z,24.90
2022-08-08T21:34:56.739Z,24.70
2022-08-08T21:54:53.692Z,24.60
2022-08-08T21:58:05.896Z,24.70
2022-08-08T22:01:04.076Z,24.60
2022-08-08T22:13:21.469Z,24.60
2022-08-08T22:16:53.988Z,24.70
2022-08-08T22:20:10.550Z,24.60
2022-08-08T22:23:14.436Z,24.60
2022-08-08T22:35:25.628Z,24.70
2022-08-08T22:38:48.541Z,24.70
2022-08-08T22:42:11.565Z,24.70
2022-08-08T22:45:12.717Z,24.60
2022-08-08T22:58:05.570Z,24.80
2022-08-08T23:00:38.106Z,24.70
2022-08-08T23:05:56.300Z,24.80
2022-08-08T23:08:35.866Z,24.80
2022-08-08T23:11:16.049Z,24.80
2022-08-08T23:14:11.298Z,24.80
2022-08-08T23:17:05.927Z,24.90
2022-08-08T23:19:37.239Z,24.90
2022-08-08T23:32:19.463Z,25.00
2022-08-08T23:35:19.852Z,25.10
2022-08-08T23:38:03.016Z,25.10
2022-08-08T23:41:00.671Z,25.10
2022-08-08T23:43:54.403Z,25.30
2022-08-08T23:48:59.923Z,25.40
2022-08-08T23:49:22.085Z,25.40
2022-08-08T23:52:16.233Z,25.40
